Station Historical Data
Daily Summary for June 9, 2017 Units:  English    Metric   Both
« Previous Day
Next Day »
Daily Weekly Monthly Yearly Custom
  High: Low: Average:
Temperature: 71.5 °F 52.0 °F 63.3 °F
Dew Point: 57.5 °F 48.3 °F 53.3 °F
Humidity: 87% 55% 71%
Wind Speed: 14.0mph 0.0mph 4.3mph
Wind Gust: 20.0mph - -
Wind- - WSW
Pressure: 29.85 in 29.78 in -
Precipitation: 0.00 in    
Historical Graphs
 
 
Tabular Data for June 9, 2017
Time Temperature Dew Point Pressure Wind Wind Speed Wind Gust Humidity Rainfall Rate (Hourly)
00:04 58.8 °F 52.6 °F 29.82 in Calm     80% 0.00 in
00:09 58.7 °F 52.5 °F 29.82 in Calm   2.0 mph 80% 0.00 in
00:14 58.5 °F 52.4 °F 29.82 in Calm   2.0 mph 80% 0.00 in
00:24 58.3 °F 52.5 °F 29.82 in Calm     81% 0.00 in
00:29 58.1 °F 52.3 °F 29.82 in Calm     81% 0.00 in
00:34 57.8 °F 52.0 °F 29.82 in Calm     81% 0.00 in
00:39 57.7 °F 52.2 °F 29.82 in Calm     82% 0.00 in
00:44 57.4 °F 51.6 °F 29.82 in Calm     81% 0.00 in
00:49 57.2 °F 51.8 °F 29.82 in Calm     82% 0.00 in
00:54 57.0 °F 51.6 °F 29.81 in Calm     82% 0.00 in
00:59 56.9 °F 51.8 °F 29.81 in Calm     83% 0.00 in
01:04 56.9 °F 51.8 °F 29.81 in Calm     83% 0.00 in
01:09 56.9 °F 51.5 °F 29.81 in Calm     82% 0.00 in
01:14 56.7 °F 51.3 °F 29.80 in Calm     82% 0.00 in
01:19 56.5 °F 51.4 °F 29.80 in Calm     83% 0.00 in
01:24 56.2 °F 51.1 °F 29.80 in Calm     83% 0.00 in
01:29 56.1 °F 51.0 °F 29.80 in Calm     83% 0.00 in
01:34 56.4 °F 51.3 °F 29.80 in Calm     83% 0.00 in
01:39 56.5 °F 51.1 °F 29.80 in Calm   3.0 mph 82% 0.00 in
01:44 56.5 °F 51.1 °F 29.80 in Calm   3.0 mph 82% 0.00 in
01:49 56.3 °F 50.9 °F 29.80 in Calm     82% 0.00 in
01:54 56.2 °F 50.8 °F 29.80 in Calm     82% 0.00 in
01:59 55.9 °F 50.5 °F 29.80 in Calm     82% 0.00 in
02:04 55.7 °F 50.3 °F 29.80 in Calm     82% 0.00 in
02:09 55.7 °F 50.6 °F 29.80 in Calm     83% 0.00 in
02:14 55.6 °F 50.5 °F 29.80 in Calm     83% 0.00 in
02:19 55.6 °F 50.5 °F 29.80 in Calm     83% 0.00 in
02:24 55.4 °F 50.3 °F 29.80 in Calm     83% 0.00 in
02:34 55.0 °F 50.3 °F 29.80 in Calm     84% 0.00 in
02:39 55.0 °F 50.3 °F 29.79 in Calm     84% 0.00 in
02:44 54.9 °F 49.8 °F 29.79 in Calm     83% 0.00 in
02:49 54.9 °F 49.8 °F 29.80 in Calm     83% 0.00 in
02:54 55.1 °F 50.4 °F 29.80 in Calm     84% 0.00 in
02:59 55.3 °F 50.2 °F 29.79 in Calm     83% 0.00 in
03:04 55.1 °F 50.0 °F 29.79 in Calm     83% 0.00 in
03:09 55.2 °F 50.1 °F 29.79 in Calm     83% 0.00 in
03:14 55.1 °F 50.4 °F 29.79 in Calm     84% 0.00 in
03:19 55.1 °F 50.4 °F 29.80 in Calm     84% 0.00 in
03:24 55.0 °F 50.3 °F 29.79 in Calm     84% 0.00 in
03:29 55.1 °F 50.4 °F 29.79 in Calm     84% 0.00 in
03:34 55.0 °F 50.3 °F 29.79 in Calm     84% 0.00 in
03:39 54.9 °F 50.2 °F 29.79 in Calm     84% 0.00 in
03:44 54.6 °F 49.9 °F 29.79 in Calm     84% 0.00 in
03:49 54.5 °F 49.8 °F 29.79 in Calm     84% 0.00 in
03:54 54.6 °F 50.2 °F 29.79 in Calm     85% 0.00 in
03:59 54.5 °F 50.1 °F 29.79 in Calm     85% 0.00 in
04:04 54.4 °F 49.7 °F 29.79 in Calm     84% 0.00 in
04:09 54.4 °F 50.0 °F 29.79 in Calm     85% 0.00 in
04:14 54.2 °F 49.8 °F 29.79 in Calm     85% 0.00 in
04:19 53.9 °F 49.5 °F 29.79 in Calm     85% 0.00 in
04:24 53.8 °F 49.4 °F 29.79 in Calm     85% 0.00 in
04:29 53.5 °F 49.1 °F 29.79 in Calm     85% 0.00 in
04:34 53.4 °F 49.0 °F 29.79 in Calm     85% 0.00 in
04:39 53.1 °F 48.7 °F 29.79 in Calm     85% 0.00 in
04:44 52.8 °F 48.7 °F 29.79 in Calm     86% 0.00 in
04:49 52.7 °F 48.6 °F 29.79 in Calm     86% 0.00 in
04:54 52.5 °F 48.7 °F 29.79 in Calm     87% 0.00 in
04:59 52.4 °F 48.6 °F 29.79 in Calm     87% 0.00 in
05:04 52.4 °F 48.6 °F 29.79 in Calm     87% 0.00 in
05:09 52.3 °F 48.5 °F 29.78 in Calm     87% 0.00 in
05:14 52.3 °F 48.5 °F 29.79 in Calm     87% 0.00 in
05:19 52.2 °F 48.4 °F 29.78 in Calm     87% 0.00 in
05:24 52.2 °F 48.4 °F 29.78 in Calm     87% 0.00 in
05:29 52.2 °F 48.4 °F 29.78 in Calm     87% 0.00 in
05:34 52.1 °F 48.3 °F 29.78 in Calm     87% 0.00 in
05:39 52.0 °F 48.3 °F 29.79 in Calm     87% 0.00 in
05:44 52.1 °F 48.3 °F 29.79 in Calm     87% 0.00 in
05:49 52.2 °F 48.4 °F 29.79 in Calm     87% 0.00 in
05:54 52.2 °F 48.4 °F 29.79 in Calm     87% 0.00 in
05:59 52.3 °F 48.5 °F 29.79 in Calm     87% 0.00 in
06:04 52.4 °F 48.6 °F 29.79 in Calm     87% 0.00 in
06:09 52.4 °F 48.6 °F 29.80 in Calm     87% 0.00 in
06:14 52.8 °F 49.0 °F 29.80 in Calm     87% 0.00 in
06:19 53.5 °F 49.7 °F 29.80 in SSW 1.0 mph 3.0 mph 87% 0.00 in
06:24 54.2 °F 49.8 °F 29.80 in Calm   4.0 mph 85% 0.00 in
06:29 54.6 °F 50.2 °F 29.80 in Calm     85% 0.00 in
06:34 55.1 °F 50.4 °F 29.80 in SSW 2.0 mph 3.0 mph 84% 0.00 in
06:39 55.6 °F 50.5 °F 29.80 in SSW 1.0 mph 3.0 mph 83% 0.00 in
06:44 56.2 °F 50.8 °F 29.80 in SW 1.0 mph 4.0 mph 82% 0.00 in
06:49 56.8 °F 51.4 °F 29.80 in SW 2.0 mph 4.0 mph 82% 0.00 in
06:54 57.3 °F 51.5 °F 29.80 in SW 2.0 mph 4.0 mph 81% 0.00 in
06:59 57.9 °F 51.8 °F 29.80 in SW 2.0 mph 5.0 mph 80% 0.00 in
07:04 58.6 °F 52.4 °F 29.80 in WSW 2.0 mph 4.0 mph 80% 0.00 in
07:09 59.2 °F 52.7 °F 29.80 in Calm   4.0 mph 79% 0.00 in
07:14 59.9 °F 53.0 °F 29.80 in SW 2.0 mph 5.0 mph 78% 0.00 in
07:19 60.6 °F 53.0 °F 29.80 in WSW 4.0 mph 7.0 mph 76% 0.00 in
07:24 61.1 °F 53.5 °F 29.80 in SW 1.0 mph 6.0 mph 76% 0.00 in
07:29 61.3 °F 53.3 °F 29.81 in WSW 6.0 mph 6.0 mph 75% 0.00 in
07:34 61.2 °F 52.8 °F 29.81 in WSW 4.0 mph 8.0 mph 74% 0.00 in
07:39 61.4 °F 53.4 °F 29.81 in SW 4.0 mph 8.0 mph 75% 0.00 in
07:44 61.5 °F 53.5 °F 29.81 in WSW 4.0 mph 7.0 mph 75% 0.00 in
07:49 61.7 °F 53.3 °F 29.81 in WSW 4.0 mph 8.0 mph 74% 0.00 in
07:54 61.7 °F 53.3 °F 29.81 in WSW 4.0 mph 10.0 mph 74% 0.00 in
07:59 62.0 °F 54.0 °F 29.81 in SW 4.0 mph 10.0 mph 75% 0.00 in
08:04 62.2 °F 53.4 °F 29.81 in WSW 3.0 mph 6.0 mph 73% 0.00 in
08:09 62.5 °F 53.3 °F 29.81 in West 3.0 mph 7.0 mph 72% 0.00 in
08:14 62.1 °F 53.3 °F 29.81 in SW 6.0 mph 7.0 mph 73% 0.00 in
08:19 62.0 °F 53.2 °F 29.81 in WSW 3.0 mph 6.0 mph 73% 0.00 in
08:24 61.8 °F 53.1 °F 29.81 in SW 3.0 mph 10.0 mph 73% 0.00 in
08:29 62.5 °F 53.3 °F 29.81 in SSW 4.0 mph 7.0 mph 72% 0.00 in
08:34 63.0 °F 53.4 °F 29.81 in SW 4.0 mph 8.0 mph 71% 0.00 in
08:39 63.1 °F 53.2 °F 29.81 in SW 4.0 mph 8.0 mph 70% 0.00 in
08:44 63.7 °F 52.9 °F 29.81 in SW 4.0 mph 9.0 mph 68% 0.00 in
08:49 63.7 °F 52.5 °F 29.81 in SW 4.0 mph 10.0 mph 67% 0.00 in
08:54 64.1 °F 52.5 °F 29.82 in SW 6.0 mph 11.0 mph 66% 0.00 in
08:59 64.2 °F 52.6 °F 29.82 in WSW 4.0 mph 12.0 mph 66% 0.00 in
09:04 63.9 °F 51.9 °F 29.82 in WSW 6.0 mph 12.0 mph 65% 0.00 in
09:09 64.3 °F 52.7 °F 29.82 in WSW 6.0 mph 12.0 mph 66% 0.00 in
09:14 65.1 °F 52.6 °F 29.82 in West 2.0 mph 9.0 mph 64% 0.00 in
09:19 64.8 °F 52.3 °F 29.82 in SW 7.0 mph 10.0 mph 64% 0.00 in
09:24 64.2 °F 51.8 °F 29.82 in SW 5.0 mph 11.0 mph 64% 0.00 in
09:29 64.7 °F 52.2 °F 29.82 in WSW 8.0 mph 10.0 mph 64% 0.00 in
09:34 64.7 °F 51.8 °F 29.82 in SW 6.0 mph 11.0 mph 63% 0.00 in
09:39 64.7 °F 51.8 °F 29.82 in WSW 6.0 mph 11.0 mph 63% 0.00 in
09:44 65.4 °F 52.0 °F 29.82 in WSW 6.0 mph 11.0 mph 62% 0.00 in
09:49 65.8 °F 51.5 °F 29.82 in WSW 6.0 mph 12.0 mph 60% 0.00 in
09:54 65.8 °F 51.5 °F 29.82 in West 6.0 mph 11.0 mph 60% 0.00 in
09:59 66.7 °F 51.9 °F 29.82 in SSW 7.0 mph 10.0 mph 59% 0.00 in
10:04 66.7 °F 50.5 °F 29.82 in WSW 7.0 mph 13.0 mph 56% 0.00 in
10:09 66.7 °F 51.0 °F 29.82 in SW 7.0 mph 13.0 mph 57% 0.00 in
10:14 66.8 °F 51.1 °F 29.82 in SW 6.0 mph 18.0 mph 57% 0.00 in
10:19 67.1 °F 50.9 °F 29.82 in WSW 6.0 mph 18.0 mph 56% 0.00 in
10:24 67.3 °F 51.5 °F 29.82 in WSW 3.0 mph 11.0 mph 57% 0.00 in
10:29 67.7 °F 51.4 °F 29.82 in WSW 6.0 mph 12.0 mph 56% 0.00 in
10:34 67.8 °F 51.5 °F 29.82 in WSW 3.0 mph 14.0 mph 56% 0.00 in
10:39 67.7 °F 51.4 °F 29.82 in WNW 5.0 mph 13.0 mph 56% 0.00 in
10:44 67.7 °F 51.9 °F 29.82 in WSW 10.0 mph 14.0 mph 57% 0.00 in
10:49 68.2 °F 52.9 °F 29.82 in SW 10.0 mph 12.0 mph 58% 0.00 in
10:54 68.0 °F 53.1 °F 29.81 in SSW 9.0 mph 15.0 mph 59% 0.00 in
10:59 68.4 °F 53.0 °F 29.81 in South 9.0 mph 12.0 mph 58% 0.00 in
11:04 68.4 °F 53.0 °F 29.82 in WSW 7.0 mph 15.0 mph 58% 0.00 in
11:09 68.3 °F 52.9 °F 29.81 in WSW 9.0 mph 20.0 mph 58% 0.00 in
11:14 68.6 °F 53.2 °F 29.81 in WSW 9.0 mph 20.0 mph 58% 0.00 in
11:19 69.0 °F 53.1 °F 29.81 in SW 8.0 mph 18.0 mph 57% 0.00 in
11:24 69.2 °F 53.3 °F 29.81 in SW 8.0 mph 17.0 mph 57% 0.00 in
11:29 69.0 °F 53.6 °F 29.81 in SW 8.0 mph 18.0 mph 58% 0.00 in
11:34 69.1 °F 52.2 °F 29.82 in SW 9.0 mph 17.0 mph 55% 0.00 in
11:39 69.7 °F 53.8 °F 29.81 in SSW 9.0 mph 17.0 mph 57% 0.00 in
11:44 69.4 °F 53.5 °F 29.82 in SW 4.0 mph 17.0 mph 57% 0.00 in
11:49 69.2 °F 53.3 °F 29.81 in SW 9.0 mph 14.0 mph 57% 0.00 in
11:54 68.7 °F 52.8 °F 29.81 in West 7.0 mph 17.0 mph 57% 0.00 in
11:59 68.7 °F 53.3 °F 29.81 in WSW 12.0 mph 16.0 mph 58% 0.00 in
12:04 69.0 °F 53.1 °F 29.82 in WSW 9.0 mph 16.0 mph 57% 0.00 in
12:09 68.6 °F 52.8 °F 29.81 in WSW 9.0 mph 18.0 mph 57% 0.00 in
12:14 68.8 °F 53.4 °F 29.81 in WSW 9.0 mph 18.0 mph 58% 0.00 in
12:19 69.8 °F 53.9 °F 29.81 in WSW 7.0 mph 15.0 mph 57% 0.00 in
12:24 69.3 °F 54.4 °F 29.81 in WSW 8.0 mph 16.0 mph 59% 0.00 in
12:29 69.6 °F 54.2 °F 29.81 in WSW 9.0 mph 16.0 mph 58% 0.00 in
12:34 70.4 °F 54.9 °F 29.82 in WNW 7.0 mph 14.0 mph 58% 0.00 in
12:39 70.0 °F 54.5 °F 29.82 in WSW 8.0 mph 18.0 mph 58% 0.00 in
12:44 69.5 °F 55.0 °F 29.82 in WSW 4.0 mph 18.0 mph 60% 0.00 in
12:49 69.5 °F 55.0 °F 29.81 in South 9.0 mph 15.0 mph 60% 0.00 in
12:54 69.3 °F 54.8 °F 29.81 in WSW 12.0 mph 18.0 mph 60% 0.00 in
12:59 69.5 °F 55.0 °F 29.81 in SW 7.0 mph 19.0 mph 60% 0.00 in
13:04 70.2 °F 55.2 °F 29.81 in West 14.0 mph 17.0 mph 59% 0.00 in
13:09 70.0 °F 54.5 °F 29.81 in WSW 8.0 mph 17.0 mph 58% 0.00 in
13:14 70.4 °F 55.4 °F 29.81 in WSW 8.0 mph 16.0 mph 59% 0.00 in
13:19 69.9 °F 54.0 °F 29.81 in WSW 8.0 mph 17.0 mph 57% 0.00 in
13:24 70.7 °F 55.2 °F 29.81 in WSW 9.0 mph 17.0 mph 58% 0.00 in
13:29 70.5 °F 55.5 °F 29.81 in SW 7.0 mph 16.0 mph 59% 0.00 in
13:34 70.4 °F 55.8 °F 29.81 in WSW 8.0 mph 16.0 mph 60% 0.00 in
13:39 70.7 °F 56.6 °F 29.81 in West 6.0 mph 15.0 mph 61% 0.00 in
13:44 70.8 °F 57.1 °F 29.81 in WSW 7.0 mph 15.0 mph 62% 0.00 in
13:49 70.5 °F 56.9 °F 29.81 in WSW 8.0 mph 15.0 mph 62% 0.00 in
13:54 70.0 °F 56.4 °F 29.81 in SW 6.0 mph 17.0 mph 62% 0.00 in
13:59 70.6 °F 56.9 °F 29.81 in WSW 8.0 mph 16.0 mph 62% 0.00 in
14:04 70.0 °F 55.5 °F 29.81 in South 6.0 mph 17.0 mph 60% 0.00 in
14:09 69.9 °F 55.8 °F 29.81 in SW 9.0 mph 17.0 mph 61% 0.00 in
14:14 69.8 °F 55.3 °F 29.81 in SW 9.0 mph 18.0 mph 60% 0.00 in
14:19 70.8 °F 57.1 °F 29.81 in WSW 6.0 mph 14.0 mph 62% 0.00 in
14:24 71.2 °F 56.1 °F 29.80 in SW 9.0 mph 13.0 mph 59% 0.00 in
14:29 70.5 °F 55.5 °F 29.80 in WNW 10.0 mph 17.0 mph 59% 0.00 in
14:34 70.8 °F 55.8 °F 29.80 in West 13.0 mph 15.0 mph 59% 0.00 in
14:39 70.8 °F 56.7 °F 29.80 in WSW 9.0 mph 15.0 mph 61% 0.00 in
14:44 71.0 °F 56.9 °F 29.80 in WSW 8.0 mph 15.0 mph 61% 0.00 in
14:49 70.6 °F 56.0 °F 29.80 in WSW 8.0 mph 19.0 mph 60% 0.00 in
14:54 70.6 °F 56.5 °F 29.80 in SW 8.0 mph 19.0 mph 61% 0.00 in
14:59 71.5 °F 57.3 °F 29.80 in WSW 7.0 mph 16.0 mph 61% 0.00 in
15:04 71.3 °F 57.2 °F 29.80 in WSW 7.0 mph 18.0 mph 61% 0.00 in
15:09 71.3 °F 56.7 °F 29.80 in WSW 5.0 mph 19.0 mph 60% 0.00 in
15:14 70.8 °F 56.2 °F 29.80 in WSW 3.0 mph 17.0 mph 60% 0.00 in
15:19 70.6 °F 56.0 °F 29.80 in SW 9.0 mph 19.0 mph 60% 0.00 in
15:24 70.5 °F 56.4 °F 29.80 in West 11.0 mph 16.0 mph 61% 0.00 in
15:29 70.7 °F 56.1 °F 29.80 in West 4.0 mph 16.0 mph 60% 0.00 in
15:34 70.4 °F 56.3 °F 29.80 in SSW 7.0 mph 19.0 mph 61% 0.00 in
15:39 70.1 °F 56.0 °F 29.80 in WSW 10.0 mph 19.0 mph 61% 0.00 in
15:44 70.0 °F 55.9 °F 29.81 in WSW 10.0 mph 20.0 mph 61% 0.00 in
15:49 70.4 °F 56.3 °F 29.80 in SW 8.0 mph 20.0 mph 61% 0.00 in
15:54 71.0 °F 56.4 °F 29.80 in SW 7.0 mph 16.0 mph 60% 0.00 in
15:59 71.2 °F 56.6 °F 29.80 in SW 7.0 mph 13.0 mph 60% 0.00 in
16:04 71.2 °F 56.1 °F 29.80 in West 3.0 mph 12.0 mph 59% 0.00 in
16:09 71.1 °F 56.0 °F 29.80 in WSW 7.0 mph 16.0 mph 59% 0.00 in
16:14 70.3 °F 55.8 °F 29.80 in WSW 9.0 mph 20.0 mph 60% 0.00 in
16:19 70.1 °F 56.5 °F 29.80 in WSW 8.0 mph 14.0 mph 62% 0.00 in
16:24 70.6 °F 56.5 °F 29.80 in WSW 7.0 mph 13.0 mph 61% 0.00 in
16:29 70.4 °F 56.3 °F 29.80 in WSW 10.0 mph 18.0 mph 61% 0.00 in
16:34 69.9 °F 55.8 °F 29.80 in WSW 9.0 mph 18.0 mph 61% 0.00 in
16:39 69.8 °F 56.6 °F 29.80 in WSW 9.0 mph 18.0 mph 63% 0.00 in
16:44 69.6 °F 56.4 °F 29.80 in WSW 9.0 mph 17.0 mph 63% 0.00 in
16:49 69.3 °F 56.2 °F 29.81 in WSW 9.0 mph 17.0 mph 63% 0.00 in
16:54 69.4 °F 57.5 °F 29.81 in WSW 8.0 mph 16.0 mph 66% 0.00 in
16:59 70.2 °F 57.0 °F 29.80 in WSW 10.0 mph 16.0 mph 63% 0.00 in
17:04 69.4 °F 56.3 °F 29.80 in West 11.0 mph 14.0 mph 63% 0.00 in
17:09 69.3 °F 56.6 °F 29.80 in SW 8.0 mph 16.0 mph 64% 0.00 in
17:14 68.4 °F 55.7 °F 29.80 in WSW 8.0 mph 18.0 mph 64% 0.00 in
17:19 68.7 °F 56.5 °F 29.80 in SW 8.0 mph 15.0 mph 65% 0.00 in
17:24 69.1 °F 56.4 °F 29.80 in SW 10.0 mph 17.0 mph 64% 0.00 in
17:29 68.6 °F 56.4 °F 29.81 in WSW 9.0 mph 19.0 mph 65% 0.00 in
17:34 68.6 °F 56.4 °F 29.80 in SSE 6.0 mph 14.0 mph 65% 0.00 in
17:39 68.4 °F 55.7 °F 29.80 in SW 7.0 mph 14.0 mph 64% 0.00 in
17:44 67.5 °F 55.3 °F 29.81 in SW 7.0 mph 13.0 mph 65% 0.00 in
17:49 67.0 °F 55.7 °F 29.80 in WSW 7.0 mph 14.0 mph 67% 0.00 in
17:54 67.1 °F 56.2 °F 29.81 in WSW 7.0 mph 15.0 mph 68% 0.00 in
17:59 67.3 °F 56.8 °F 29.80 in WSW 6.0 mph 15.0 mph 69% 0.00 in
18:04 66.7 °F 56.2 °F 29.80 in WSW 7.0 mph 15.0 mph 69% 0.00 in
18:09 66.1 °F 56.4 °F 29.80 in SW 3.0 mph 12.0 mph 71% 0.00 in
18:14 66.0 °F 56.3 °F 29.80 in SW 5.0 mph 12.0 mph 71% 0.00 in
18:19 66.0 °F 56.3 °F 29.80 in SW 7.0 mph 9.0 mph 71% 0.00 in
18:24 66.1 °F 56.0 °F 29.80 in West 3.0 mph 14.0 mph 70% 0.00 in
18:29 66.0 °F 55.9 °F 29.80 in WSW 1.0 mph 11.0 mph 70% 0.00 in
18:34 66.1 °F 56.0 °F 29.80 in WSW 4.0 mph 11.0 mph 70% 0.00 in
18:39 66.4 °F 56.3 °F 29.81 in SW 8.0 mph 14.0 mph 70% 0.00 in
18:44 66.2 °F 56.1 °F 29.81 in WSW 5.0 mph 14.0 mph 70% 0.00 in
18:49 66.1 °F 56.0 °F 29.81 in WSW 6.0 mph 14.0 mph 70% 0.00 in
18:54 66.1 °F 55.6 °F 29.81 in WSW 6.0 mph 12.0 mph 69% 0.00 in
18:59 66.0 °F 55.5 °F 29.81 in SW 8.0 mph 11.0 mph 69% 0.00 in
19:04 65.8 °F 55.7 °F 29.81 in WSW 4.0 mph 13.0 mph 70% 0.00 in
19:09 65.6 °F 55.9 °F 29.81 in WSW 11.0 mph 13.0 mph 71% 0.00 in
19:14 65.3 °F 55.7 °F 29.81 in WSW 7.0 mph 16.0 mph 71% 0.00 in
19:19 65.3 °F 55.7 °F 29.81 in WSW 4.0 mph 11.0 mph 71% 0.00 in
19:24 65.3 °F 55.7 °F 29.81 in SW 4.0 mph 12.0 mph 71% 0.00 in
19:29 65.3 °F 55.7 °F 29.82 in WSW 5.0 mph 9.0 mph 71% 0.00 in
19:34 65.2 °F 55.6 °F 29.81 in West 3.0 mph 11.0 mph 71% 0.00 in
19:39 65.1 °F 55.5 °F 29.82 in West 8.0 mph 11.0 mph 71% 0.00 in
19:44 65.1 °F 55.8 °F 29.82 in WSW 6.0 mph 11.0 mph 72% 0.00 in
19:49 65.0 °F 55.8 °F 29.82 in WSW 5.0 mph 11.0 mph 72% 0.00 in
19:54 64.9 °F 55.7 °F 29.82 in WSW 6.0 mph 11.0 mph 72% 0.00 in
19:59 65.0 °F 55.8 °F 29.82 in SSW 7.0 mph 9.0 mph 72% 0.00 in
20:04 65.0 °F 55.8 °F 29.82 in WSW 5.0 mph 9.0 mph 72% 0.00 in
20:09 65.0 °F 55.8 °F 29.82 in SSW 4.0 mph 12.0 mph 72% 0.00 in
20:14 64.9 °F 55.3 °F 29.82 in SW 4.0 mph 11.0 mph 71% 0.00 in
20:19 65.1 °F 55.5 °F 29.82 in SW 5.0 mph 11.0 mph 71% 0.00 in
20:24 65.1 °F 55.1 °F 29.82 in SW 5.0 mph 11.0 mph 70% 0.00 in
20:29 65.1 °F 55.1 °F 29.82 in SW 6.0 mph 12.0 mph 70% 0.00 in
20:34 64.9 °F 55.3 °F 29.82 in SW 5.0 mph 12.0 mph 71% 0.00 in
20:39 64.8 °F 55.2 °F 29.82 in SW 4.0 mph 14.0 mph 71% 0.00 in
20:44 64.7 °F 55.1 °F 29.82 in SW 5.0 mph 14.0 mph 71% 0.00 in
20:49 64.7 °F 55.1 °F 29.82 in SW 5.0 mph 12.0 mph 71% 0.00 in
20:54 64.6 °F 55.0 °F 29.82 in South 7.0 mph 10.0 mph 71% 0.00 in
20:59 64.5 °F 54.9 °F 29.82 in West 4.0 mph 10.0 mph 71% 0.00 in
21:04 64.4 °F 54.8 °F 29.82 in SW 3.0 mph 9.0 mph 71% 0.00 in
21:09 64.3 °F 54.7 °F 29.83 in West 8.0 mph 9.0 mph 71% 0.00 in
21:14 64.2 °F 54.6 °F 29.83 in WSW 4.0 mph 9.0 mph 71% 0.00 in
21:19 64.1 °F 54.5 °F 29.83 in SW 4.0 mph 8.0 mph 71% 0.00 in
21:24 64.1 °F 54.5 °F 29.83 in WSW 4.0 mph 8.0 mph 71% 0.00 in
21:29 63.9 °F 54.3 °F 29.83 in WSW 4.0 mph 8.0 mph 71% 0.00 in
21:34 63.8 °F 54.6 °F 29.83 in SW 4.0 mph 8.0 mph 72% 0.00 in
21:39 63.6 °F 54.4 °F 29.83 in SSW 3.0 mph 6.0 mph 72% 0.00 in
21:44 63.4 °F 54.6 °F 29.83 in SSW 5.0 mph 8.0 mph 73% 0.00 in
21:49 63.3 °F 54.5 °F 29.83 in SW 3.0 mph 8.0 mph 73% 0.00 in
21:54 63.3 °F 54.5 °F 29.83 in SW 4.0 mph 8.0 mph 73% 0.00 in
21:59 63.2 °F 54.4 °F 29.84 in SW 4.0 mph 5.0 mph 73% 0.00 in
22:04 63.2 °F 54.4 °F 29.84 in West 2.0 mph 8.0 mph 73% 0.00 in
22:09 63.1 °F 54.3 °F 29.84 in SW 4.0 mph 6.0 mph 73% 0.00 in
22:14 63.0 °F 54.6 °F 29.84 in SSW 3.0 mph 6.0 mph 74% 0.00 in
22:19 63.2 °F 54.4 °F 29.84 in SW 3.0 mph 7.0 mph 73% 0.00 in
22:24 63.3 °F 54.5 °F 29.84 in SW 4.0 mph 7.0 mph 73% 0.00 in
22:29 63.4 °F 54.6 °F 29.84 in SW 3.0 mph 7.0 mph 73% 0.00 in
22:34 63.3 °F 54.5 °F 29.84 in West 3.0 mph 5.0 mph 73% 0.00 in
22:39 63.3 °F 54.1 °F 29.84 in SSW 1.0 mph 5.0 mph 72% 0.00 in
22:44 63.4 °F 54.2 °F 29.84 in SW 4.0 mph 5.0 mph 72% 0.00 in
22:49 63.5 °F 53.9 °F 29.85 in SW 2.0 mph 5.0 mph 71% 0.00 in
22:54 63.6 °F 54.0 °F 29.85 in SW 3.0 mph 6.0 mph 71% 0.00 in
22:59 63.7 °F 53.7 °F 29.85 in SW 3.0 mph 6.0 mph 70% 0.00 in
23:04 63.9 °F 53.9 °F 29.85 in WSW 3.0 mph 7.0 mph 70% 0.00 in
23:09 64.0 °F 54.0 °F 29.85 in SW 2.0 mph 7.0 mph 70% 0.00 in
23:14 64.3 °F 54.3 °F 29.85 in West 1.0 mph 7.0 mph 70% 0.00 in
23:19 64.4 °F 54.4 °F 29.85 in SW 3.0 mph 6.0 mph 70% 0.00 in
23:24 64.5 °F 54.5 °F 29.85 in WSW 3.0 mph 4.0 mph 70% 0.00 in
23:29 64.4 °F 54.4 °F 29.85 in Calm   5.0 mph 70% 0.00 in
23:34 64.3 °F 54.7 °F 29.85 in Calm   3.0 mph 71% 0.00 in
23:39 64.1 °F 54.5 °F 29.85 in Calm   4.0 mph 71% 0.00 in
23:44 64.0 °F 54.4 °F 29.85 in Calm   3.0 mph 71% 0.00 in
23:49 64.0 °F 54.0 °F 29.85 in Calm   3.0 mph 70% 0.00 in
23:54 64.3 °F 53.9 °F 29.85 in WSW 1.0 mph 4.0 mph 69% 0.00 in
23:59 64.3 °F 53.9 °F 29.85 in Calm   4.0 mph 69% 0.00 in
Buffalo, New York, USA
Compliments of Weather Underground - 2.5 mb